<?xml version="1.0" encoding="UTF-8"?>
<gpx creator="Wikiloc - https://www.wikiloc.com" version="1.1" xmlns="http://www.topografix.com/GPX/1/1" xmlns:xsi="http://www.w3.org/2001/XMLSchema-instance" xsi:schemaLocation="http://www.topografix.com/GPX/1/1 http://www.topografix.com/GPX/1/1/gpx.xsd">
  <metadata>
    <name>Wikiloc - CIRCULAR EL GUINCHO LAS CAÑAS, MALPAIS Y LA CORONELA 26 DE A...</name>
    <link href="https://www.wikiloc.com/hiking-trails/circular-el-guincho-las-canas-malpais-y-la-coronela-26-de-agosto-de-2021-83671996">
      <text>CIRCULAR EL GUINCHO LAS CAÑAS, MALPAIS Y LA CORONELA 26 DE A... on Wikiloc</text>
    </link>
    <time>2021-08-26T19:35:03Z</time>
  </metadata>
  <trk>
    <name>CIRCULAR EL GUINCHO LAS CAÑAS, MALPAIS Y LA CORONELA 26 DE A...</name>
    <cmt></cmt>
    <desc></desc>
    <trkseg>
      <trkpt lat="28.373536" lon="-16.744866">
        <ele>89.449</ele>
        <time>2021-08-26T11:55:13Z</time>
      </trkpt>
      <trkpt lat="28.373349" lon="-16.743494">
        <ele>73.202</ele>
        <time>2021-08-26T12:07:51Z</time>
      </trkpt>
      <trkpt lat="28.373462" lon="-16.743398">
        <ele>72.622</ele>
        <time>2021-08-26T12:08:26Z</time>
      </trkpt>
      <trkpt lat="28.374024" lon="-16.743372">
        <ele>65.208</ele>
        <time>2021-08-26T12:09:44Z</time>
      </trkpt>
      <trkpt lat="28.374406" lon="-16.743105">
        <ele>58.772</ele>
        <time>2021-08-26T12:11:00Z</time>
      </trkpt>
      <trkpt lat="28.375371" lon="-16.743507">
        <ele>39.877</ele>
        <time>2021-08-26T12:14:30Z</time>
      </trkpt>
      <trkpt lat="28.375414" lon="-16.743225">
        <ele>36.470</ele>
        <time>2021-08-26T12:16:21Z</time>
      </trkpt>
      <trkpt lat="28.375787" lon="-16.743010">
        <ele>23.011</ele>
        <time>2021-08-26T12:19:07Z</time>
      </trkpt>
      <trkpt lat="28.375745" lon="-16.742768">
        <ele>17.155</ele>
        <time>2021-08-26T12:20:16Z</time>
      </trkpt>
      <trkpt lat="28.375942" lon="-16.742465">
        <ele>11.123</ele>
        <time>2021-08-26T12:22:13Z</time>
      </trkpt>
      <trkpt lat="28.376106" lon="-16.742955">
        <ele>16.663</ele>
        <time>2021-08-26T12:25:07Z</time>
      </trkpt>
      <trkpt lat="28.376534" lon="-16.742735">
        <ele>23.980</ele>
        <time>2021-08-26T12:28:50Z</time>
      </trkpt>
      <trkpt lat="28.376143" lon="-16.741029">
        <ele>41.227</ele>
        <time>2021-08-26T12:33:47Z</time>
      </trkpt>
      <trkpt lat="28.375971" lon="-16.740803">
        <ele>43.568</ele>
        <time>2021-08-26T12:34:19Z</time>
      </trkpt>
      <trkpt lat="28.376203" lon="-16.740325">
        <ele>46.014</ele>
        <time>2021-08-26T12:35:33Z</time>
      </trkpt>
      <trkpt lat="28.377872" lon="-16.740537">
        <ele>38.808</ele>
        <time>2021-08-26T12:39:59Z</time>
      </trkpt>
      <trkpt lat="28.377755" lon="-16.740549">
        <ele>39.510</ele>
        <time>2021-08-26T12:40:22Z</time>
      </trkpt>
      <trkpt lat="28.378072" lon="-16.740206">
        <ele>34.885</ele>
        <time>2021-08-26T12:42:18Z</time>
      </trkpt>
      <trkpt lat="28.377273" lon="-16.739421">
        <ele>32.618</ele>
        <time>2021-08-26T12:45:18Z</time>
      </trkpt>
      <trkpt lat="28.377099" lon="-16.738505">
        <ele>28.219</ele>
        <time>2021-08-26T12:46:56Z</time>
      </trkpt>
      <trkpt lat="28.377551" lon="-16.739277">
        <ele>23.153</ele>
        <time>2021-08-26T12:48:50Z</time>
      </trkpt>
      <trkpt lat="28.378257" lon="-16.739973">
        <ele>20.611</ele>
        <time>2021-08-26T12:50:42Z</time>
      </trkpt>
      <trkpt lat="28.378329" lon="-16.740269">
        <ele>20.071</ele>
        <time>2021-08-26T12:52:07Z</time>
      </trkpt>
      <trkpt lat="28.378478" lon="-16.740283">
        <ele>20.318</ele>
        <time>2021-08-26T12:54:26Z</time>
      </trkpt>
      <trkpt lat="28.378338" lon="-16.739932">
        <ele>22.711</ele>
        <time>2021-08-26T12:56:10Z</time>
      </trkpt>
      <trkpt lat="28.379080" lon="-16.739903">
        <ele>23.921</ele>
        <time>2021-08-26T12:58:28Z</time>
      </trkpt>
      <trkpt lat="28.379261" lon="-16.739451">
        <ele>23.403</ele>
        <time>2021-08-26T12:59:26Z</time>
      </trkpt>
      <trkpt lat="28.379445" lon="-16.739800">
        <ele>23.408</ele>
        <time>2021-08-26T13:00:18Z</time>
      </trkpt>
      <trkpt lat="28.379402" lon="-16.740131">
        <ele>22.749</ele>
        <time>2021-08-26T13:01:16Z</time>
      </trkpt>
      <trkpt lat="28.379638" lon="-16.741091">
        <ele>21.874</ele>
        <time>2021-08-26T13:04:03Z</time>
      </trkpt>
      <trkpt lat="28.379487" lon="-16.741231">
        <ele>22.947</ele>
        <time>2021-08-26T13:06:23Z</time>
      </trkpt>
      <trkpt lat="28.379592" lon="-16.740851">
        <ele>21.658</ele>
        <time>2021-08-26T13:11:16Z</time>
      </trkpt>
      <trkpt lat="28.379439" lon="-16.739771">
        <ele>25.262</ele>
        <time>2021-08-26T13:14:00Z</time>
      </trkpt>
      <trkpt lat="28.379190" lon="-16.739256">
        <ele>27.050</ele>
        <time>2021-08-26T13:15:20Z</time>
      </trkpt>
      <trkpt lat="28.379238" lon="-16.738848">
        <ele>28.390</ele>
        <time>2021-08-26T13:16:08Z</time>
      </trkpt>
      <trkpt lat="28.379632" lon="-16.738232">
        <ele>29.657</ele>
        <time>2021-08-26T13:17:25Z</time>
      </trkpt>
      <trkpt lat="28.379959" lon="-16.738823">
        <ele>22.555</ele>
        <time>2021-08-26T13:20:59Z</time>
      </trkpt>
      <trkpt lat="28.380014" lon="-16.738664">
        <ele>24.407</ele>
        <time>2021-08-26T13:25:20Z</time>
      </trkpt>
      <trkpt lat="28.380114" lon="-16.738723">
        <ele>23.517</ele>
        <time>2021-08-26T13:27:29Z</time>
      </trkpt>
      <trkpt lat="28.379898" lon="-16.738613">
        <ele>26.108</ele>
        <time>2021-08-26T13:31:42Z</time>
      </trkpt>
      <trkpt lat="28.379987" lon="-16.738255">
        <ele>30.313</ele>
        <time>2021-08-26T13:32:59Z</time>
      </trkpt>
      <trkpt lat="28.380176" lon="-16.738202">
        <ele>30.578</ele>
        <time>2021-08-26T13:34:03Z</time>
      </trkpt>
      <trkpt lat="28.380242" lon="-16.738379">
        <ele>29.751</ele>
        <time>2021-08-26T13:35:40Z</time>
      </trkpt>
      <trkpt lat="28.379836" lon="-16.738015">
        <ele>31.732</ele>
        <time>2021-08-26T13:38:28Z</time>
      </trkpt>
      <trkpt lat="28.379991" lon="-16.737845">
        <ele>31.316</ele>
        <time>2021-08-26T13:40:23Z</time>
      </trkpt>
      <trkpt lat="28.380015" lon="-16.736949">
        <ele>29.554</ele>
        <time>2021-08-26T13:46:59Z</time>
      </trkpt>
      <trkpt lat="28.379759" lon="-16.736574">
        <ele>34.534</ele>
        <time>2021-08-26T13:51:54Z</time>
      </trkpt>
      <trkpt lat="28.379585" lon="-16.736580">
        <ele>35.731</ele>
        <time>2021-08-26T13:54:26Z</time>
      </trkpt>
      <trkpt lat="28.379587" lon="-16.735973">
        <ele>35.193</ele>
        <time>2021-08-26T13:57:16Z</time>
      </trkpt>
      <trkpt lat="28.379458" lon="-16.736216">
        <ele>35.265</ele>
        <time>2021-08-26T14:01:44Z</time>
      </trkpt>
      <trkpt lat="28.378971" lon="-16.736132">
        <ele>35.621</ele>
        <time>2021-08-26T14:02:33Z</time>
      </trkpt>
      <trkpt lat="28.379005" lon="-16.735664">
        <ele>35.508</ele>
        <time>2021-08-26T14:03:16Z</time>
      </trkpt>
      <trkpt lat="28.379094" lon="-16.735433">
        <ele>34.677</ele>
        <time>2021-08-26T14:03:40Z</time>
      </trkpt>
      <trkpt lat="28.379344" lon="-16.735374">
        <ele>32.262</ele>
        <time>2021-08-26T14:04:10Z</time>
      </trkpt>
      <trkpt lat="28.379402" lon="-16.735504">
        <ele>32.445</ele>
        <time>2021-08-26T14:04:25Z</time>
      </trkpt>
      <trkpt lat="28.379214" lon="-16.735766">
        <ele>33.566</ele>
        <time>2021-08-26T14:07:33Z</time>
      </trkpt>
      <trkpt lat="28.380228" lon="-16.735094">
        <ele>29.080</ele>
        <time>2021-08-26T14:30:12Z</time>
      </trkpt>
      <trkpt lat="28.381301" lon="-16.734001">
        <ele>26.138</ele>
        <time>2021-08-26T14:33:42Z</time>
      </trkpt>
      <trkpt lat="28.381132" lon="-16.734213">
        <ele>23.898</ele>
        <time>2021-08-26T14:34:19Z</time>
      </trkpt>
      <trkpt lat="28.381370" lon="-16.734094">
        <ele>22.685</ele>
        <time>2021-08-26T14:34:43Z</time>
      </trkpt>
      <trkpt lat="28.381660" lon="-16.734432">
        <ele>21.398</ele>
        <time>2021-08-26T14:35:49Z</time>
      </trkpt>
      <trkpt lat="28.381544" lon="-16.734000">
        <ele>21.815</ele>
        <time>2021-08-26T14:37:19Z</time>
      </trkpt>
      <trkpt lat="28.381819" lon="-16.733654">
        <ele>22.426</ele>
        <time>2021-08-26T14:37:57Z</time>
      </trkpt>
      <trkpt lat="28.382051" lon="-16.733897">
        <ele>23.408</ele>
        <time>2021-08-26T14:39:05Z</time>
      </trkpt>
      <trkpt lat="28.382240" lon="-16.733823">
        <ele>20.557</ele>
        <time>2021-08-26T14:41:01Z</time>
      </trkpt>
      <trkpt lat="28.382166" lon="-16.734024">
        <ele>18.362</ele>
        <time>2021-08-26T14:45:30Z</time>
      </trkpt>
      <trkpt lat="28.382183" lon="-16.733796">
        <ele>20.375</ele>
        <time>2021-08-26T14:47:57Z</time>
      </trkpt>
      <trkpt lat="28.381851" lon="-16.733648">
        <ele>22.366</ele>
        <time>2021-08-26T14:50:06Z</time>
      </trkpt>
      <trkpt lat="28.381802" lon="-16.733101">
        <ele>23.880</ele>
        <time>2021-08-26T14:52:04Z</time>
      </trkpt>
      <trkpt lat="28.381468" lon="-16.732364">
        <ele>24.848</ele>
        <time>2021-08-26T14:53:15Z</time>
      </trkpt>
      <trkpt lat="28.381092" lon="-16.732094">
        <ele>26.028</ele>
        <time>2021-08-26T14:54:25Z</time>
      </trkpt>
      <trkpt lat="28.381515" lon="-16.732160">
        <ele>22.565</ele>
        <time>2021-08-26T15:02:02Z</time>
      </trkpt>
      <trkpt lat="28.381571" lon="-16.731990">
        <ele>23.134</ele>
        <time>2021-08-26T15:03:37Z</time>
      </trkpt>
      <trkpt lat="28.381488" lon="-16.732469">
        <ele>24.655</ele>
        <time>2021-08-26T15:07:52Z</time>
      </trkpt>
      <trkpt lat="28.380951" lon="-16.732040">
        <ele>25.710</ele>
        <time>2021-08-26T15:09:25Z</time>
      </trkpt>
      <trkpt lat="28.380171" lon="-16.732390">
        <ele>27.608</ele>
        <time>2021-08-26T15:13:58Z</time>
      </trkpt>
      <trkpt lat="28.379499" lon="-16.732378">
        <ele>28.851</ele>
        <time>2021-08-26T15:17:58Z</time>
      </trkpt>
      <trkpt lat="28.379080" lon="-16.732198">
        <ele>30.446</ele>
        <time>2021-08-26T15:23:13Z</time>
      </trkpt>
      <trkpt lat="28.378834" lon="-16.732341">
        <ele>30.719</ele>
        <time>2021-08-26T15:25:48Z</time>
      </trkpt>
      <trkpt lat="28.377927" lon="-16.731386">
        <ele>23.890</ele>
        <time>2021-08-26T15:30:54Z</time>
      </trkpt>
      <trkpt lat="28.378364" lon="-16.730791">
        <ele>18.544</ele>
        <time>2021-08-26T15:36:11Z</time>
      </trkpt>
      <trkpt lat="28.377845" lon="-16.731310">
        <ele>22.922</ele>
        <time>2021-08-26T15:54:33Z</time>
      </trkpt>
      <trkpt lat="28.377682" lon="-16.731353">
        <ele>24.152</ele>
        <time>2021-08-26T15:54:47Z</time>
      </trkpt>
      <trkpt lat="28.377411" lon="-16.731170">
        <ele>24.599</ele>
        <time>2021-08-26T15:55:18Z</time>
      </trkpt>
      <trkpt lat="28.377607" lon="-16.731029">
        <ele>22.888</ele>
        <time>2021-08-26T15:57:29Z</time>
      </trkpt>
      <trkpt lat="28.377722" lon="-16.731517">
        <ele>25.024</ele>
        <time>2021-08-26T16:01:24Z</time>
      </trkpt>
      <trkpt lat="28.377608" lon="-16.731652">
        <ele>24.426</ele>
        <time>2021-08-26T16:01:42Z</time>
      </trkpt>
      <trkpt lat="28.376687" lon="-16.731002">
        <ele>23.208</ele>
        <time>2021-08-26T16:05:15Z</time>
      </trkpt>
      <trkpt lat="28.376281" lon="-16.731383">
        <ele>26.746</ele>
        <time>2021-08-26T16:06:30Z</time>
      </trkpt>
      <trkpt lat="28.376177" lon="-16.732494">
        <ele>29.951</ele>
        <time>2021-08-26T16:09:00Z</time>
      </trkpt>
      <trkpt lat="28.375228" lon="-16.733872">
        <ele>34.554</ele>
        <time>2021-08-26T16:26:12Z</time>
      </trkpt>
      <trkpt lat="28.374448" lon="-16.735718">
        <ele>39.415</ele>
        <time>2021-08-26T16:29:33Z</time>
      </trkpt>
      <trkpt lat="28.374158" lon="-16.736171">
        <ele>44.639</ele>
        <time>2021-08-26T16:31:24Z</time>
      </trkpt>
      <trkpt lat="28.373734" lon="-16.736395">
        <ele>49.157</ele>
        <time>2021-08-26T16:32:23Z</time>
      </trkpt>
      <trkpt lat="28.373210" lon="-16.736124">
        <ele>57.657</ele>
        <time>2021-08-26T16:34:00Z</time>
      </trkpt>
      <trkpt lat="28.373191" lon="-16.735556">
        <ele>62.364</ele>
        <time>2021-08-26T16:35:41Z</time>
      </trkpt>
      <trkpt lat="28.373376" lon="-16.734900">
        <ele>64.685</ele>
        <time>2021-08-26T16:37:43Z</time>
      </trkpt>
      <trkpt lat="28.374092" lon="-16.733979">
        <ele>70.689</ele>
        <time>2021-08-26T16:40:13Z</time>
      </trkpt>
      <trkpt lat="28.374235" lon="-16.733103">
        <ele>83.517</ele>
        <time>2021-08-26T16:43:08Z</time>
      </trkpt>
      <trkpt lat="28.374146" lon="-16.732821">
        <ele>87.808</ele>
        <time>2021-08-26T16:43:54Z</time>
      </trkpt>
      <trkpt lat="28.373767" lon="-16.732511">
        <ele>95.296</ele>
        <time>2021-08-26T16:45:03Z</time>
      </trkpt>
      <trkpt lat="28.373289" lon="-16.731765">
        <ele>98.631</ele>
        <time>2021-08-26T16:47:39Z</time>
      </trkpt>
      <trkpt lat="28.373385" lon="-16.732205">
        <ele>99.294</ele>
        <time>2021-08-26T16:48:31Z</time>
      </trkpt>
      <trkpt lat="28.373656" lon="-16.732503">
        <ele>99.695</ele>
        <time>2021-08-26T16:49:09Z</time>
      </trkpt>
      <trkpt lat="28.373717" lon="-16.733008">
        <ele>99.069</ele>
        <time>2021-08-26T16:50:57Z</time>
      </trkpt>
      <trkpt lat="28.372957" lon="-16.734601">
        <ele>93.577</ele>
        <time>2021-08-26T16:54:57Z</time>
      </trkpt>
      <trkpt lat="28.372789" lon="-16.735423">
        <ele>90.477</ele>
        <time>2021-08-26T16:56:20Z</time>
      </trkpt>
      <trkpt lat="28.372920" lon="-16.736258">
        <ele>87.884</ele>
        <time>2021-08-26T16:57:40Z</time>
      </trkpt>
      <trkpt lat="28.373522" lon="-16.737280">
        <ele>89.713</ele>
        <time>2021-08-26T17:03:18Z</time>
      </trkpt>
      <trkpt lat="28.373403" lon="-16.738180">
        <ele>91.043</ele>
        <time>2021-08-26T17:06:31Z</time>
      </trkpt>
      <trkpt lat="28.373982" lon="-16.739647">
        <ele>95.307</ele>
        <time>2021-08-26T17:10:37Z</time>
      </trkpt>
      <trkpt lat="28.373698" lon="-16.740326">
        <ele>95.508</ele>
        <time>2021-08-26T17:13:31Z</time>
      </trkpt>
      <trkpt lat="28.373115" lon="-16.740692">
        <ele>95.949</ele>
        <time>2021-08-26T19:17:06Z</time>
      </trkpt>
      <trkpt lat="28.373036" lon="-16.741093">
        <ele>95.664</ele>
        <time>2021-08-26T19:18:40Z</time>
      </trkpt>
      <trkpt lat="28.373701" lon="-16.741822">
        <ele>95.697</ele>
        <time>2021-08-26T19:25:03Z</time>
      </trkpt>
      <trkpt lat="28.373628" lon="-16.742289">
        <ele>95.368</ele>
        <time>2021-08-26T19:26:51Z</time>
      </trkpt>
      <trkpt lat="28.373011" lon="-16.742677">
        <ele>95.432</ele>
        <time>2021-08-26T19:28:22Z</time>
      </trkpt>
      <trkpt lat="28.373067" lon="-16.743390">
        <ele>96.170</ele>
        <time>2021-08-26T19:31:08Z</time>
      </trkpt>
      <trkpt lat="28.373440" lon="-16.744149">
        <ele>96.410</ele>
        <time>2021-08-26T19:32:58Z</time>
      </trkpt>
      <trkpt lat="28.373562" lon="-16.744870">
        <ele>94.017</ele>
        <time>2021-08-26T19:35:03Z</time>
      </trkpt>
    </trkseg>
  </trk></gpx>